sensor_id;sensor_type;location;lat;lon;timestamp;P1;durP1;ratioP1;P2;durP2;ratioP2
69894;SDS011;57172;52.034;5.090;2023-05-10T00:00:57;81.20;;;22.77;;
69894;SDS011;57172;52.034;5.090;2023-05-10T00:03:24;82.85;;;22.15;;
69894;SDS011;57172;52.034;5.090;2023-05-10T00:05:51;82.50;;;23.57;;
69894;SDS011;57172;52.034;5.090;2023-05-10T00:08:18;77.32;;;22.17;;
69894;SDS011;57172;52.034;5.090;2023-05-10T00:10:44;82.32;;;22.67;;
69894;SDS011;57172;52.034;5.090;2023-05-10T00:13:11;67.47;;;19.58;;
69894;SDS011;57172;52.034;5.090;2023-05-10T00:15:38;80.55;;;21.60;;
69894;SDS011;57172;52.034;5.090;2023-05-10T00:18:05;86.80;;;21.70;;
69894;SDS011;57172;52.034;5.090;2023-05-10T00:20:32;82.93;;;21.70;;
69894;SDS011;57172;52.034;5.090;2023-05-10T00:23:00;90.45;;;23.08;;
69894;SDS011;57172;52.034;5.090;2023-05-10T00:25:27;83.45;;;20.40;;
69894;SDS011;57172;52.034;5.090;2023-05-10T00:27:54;85.00;;;20.45;;
69894;SDS011;57172;52.034;5.090;2023-05-10T00:30:24;78.60;;;20.40;;
69894;SDS011;57172;52.034;5.090;2023-05-10T00:32:51;80.13;;;20.17;;
69894;SDS011;57172;52.034;5.090;2023-05-10T00:35:18;74.55;;;20.23;;
69894;SDS011;57172;52.034;5.090;2023-05-10T00:37:45;87.07;;;21.02;;
69894;SDS011;57172;52.034;5.090;2023-05-10T00:40:12;83.85;;;21.10;;
69894;SDS011;57172;52.034;5.090;2023-05-10T00:42:42;76.33;;;19.90;;
69894;SDS011;57172;52.034;5.090;2023-05-10T00:45:09;80.53;;;20.23;;
69894;SDS011;57172;52.034;5.090;2023-05-10T00:47:37;80.38;;;21.20;;
69894;SDS011;57172;52.034;5.090;2023-05-10T00:50:04;81.50;;;19.35;;
69894;SDS011;57172;52.034;5.090;2023-05-10T00:52:32;86.72;;;20.42;;
69894;SDS011;57172;52.034;5.090;2023-05-10T00:54:59;82.93;;;20.60;;
69894;SDS011;57172;52.034;5.090;2023-05-10T00:57:27;82.07;;;20.15;;
69894;SDS011;57172;52.034;5.090;2023-05-10T00:59:54;81.75;;;20.75;;
69894;SDS011;57172;52.034;5.090;2023-05-10T01:02:21;89.22;;;22.25;;
69894;SDS011;57172;52.034;5.090;2023-05-10T01:04:49;81.75;;;20.58;;
69894;SDS011;57172;52.034;5.090;2023-05-10T01:07:16;89.13;;;21.10;;
69894;SDS011;57172;52.034;5.090;2023-05-10T01:09:43;92.65;;;21.13;;
69894;SDS011;57172;52.034;5.090;2023-05-10T01:12:10;68.68;;;19.40;;
69894;SDS011;57172;52.034;5.090;2023-05-10T01:14:37;80.70;;;20.85;;
69894;SDS011;57172;52.034;5.090;2023-05-10T01:17:05;81.38;;;22.25;;
69894;SDS011;57172;52.034;5.090;2023-05-10T01:19:34;76.63;;;20.87;;
69894;SDS011;57172;52.034;5.090;2023-05-10T01:33:52;106.13;;;23.97;;
69894;SDS011;57172;52.034;5.090;2023-05-10T01:36:38;102.97;;;24.02;;
69894;SDS011;57172;52.034;5.090;2023-05-10T01:42:08;120.60;;;24.67;;
69894;SDS011;57172;52.034;5.090;2023-05-10T01:44:39;119.70;;;24.85;;
69894;SDS011;57172;52.034;5.090;2023-05-10T01:47:18;121.10;;;24.50;;
69894;SDS011;57172;52.034;5.090;2023-05-10T01:49:53;115.88;;;24.38;;
69894;SDS011;57172;52.034;5.090;2023-05-10T01:52:25;123.07;;;23.77;;
69894;SDS011;57172;52.034;5.090;2023-05-10T01:55:00;143.48;;;23.10;;
69894;SDS011;57172;52.034;5.090;2023-05-10T01:57:37;136.18;;;22.48;;
69894;SDS011;57172;52.034;5.090;2023-05-10T02:00:07;127.17;;;23.27;;
69894;SDS011;57172;52.034;5.090;2023-05-10T02:02:45;102.32;;;20.13;;
69894;SDS011;57172;52.034;5.090;2023-05-10T02:05:14;113.85;;;23.23;;
69894;SDS011;57172;52.034;5.090;2023-05-10T02:07:42;103.88;;;22.60;;
69894;SDS011;57172;52.034;5.090;2023-05-10T02:10:11;114.75;;;24.27;;
69894;SDS011;57172;52.034;5.090;2023-05-10T02:12:43;111.13;;;24.87;;
69894;SDS011;57172;52.034;5.090;2023-05-10T02:15:15;100.20;;;24.45;;
69894;SDS011;57172;52.034;5.090;2023-05-10T02:17:44;106.95;;;25.02;;
69894;SDS011;57172;52.034;5.090;2023-05-10T02:20:13;96.65;;;24.67;;
69894;SDS011;57172;52.034;5.090;2023-05-10T02:22:43;91.63;;;23.90;;
69894;SDS011;57172;52.034;5.090;2023-05-10T02:25:12;68.43;;;20.57;;
69894;SDS011;57172;52.034;5.090;2023-05-10T02:27:42;72.78;;;22.50;;
69894;SDS011;57172;52.034;5.090;2023-05-10T02:30:10;81.22;;;23.30;;
69894;SDS011;57172;52.034;5.090;2023-05-10T02:32:38;73.75;;;22.50;;
69894;SDS011;57172;52.034;5.090;2023-05-10T02:35:06;83.55;;;23.42;;
69894;SDS011;57172;52.034;5.090;2023-05-10T02:37:34;87.60;;;23.07;;
69894;SDS011;57172;52.034;5.090;2023-05-10T02:40:04;80.45;;;23.02;;
69894;SDS011;57172;52.034;5.090;2023-05-10T02:42:33;93.20;;;23.60;;
69894;SDS011;57172;52.034;5.090;2023-05-10T02:45:07;86.78;;;23.05;;
69894;SDS011;57172;52.034;5.090;2023-05-10T02:47:39;86.18;;;22.95;;
69894;SDS011;57172;52.034;5.090;2023-05-10T02:50:07;78.33;;;22.87;;
69894;SDS011;57172;52.034;5.090;2023-05-10T02:52:45;82.53;;;21.95;;
69894;SDS011;57172;52.034;5.090;2023-05-10T02:55:14;78.68;;;21.83;;
69894;SDS011;57172;52.034;5.090;2023-05-10T02:57:56;87.57;;;22.60;;
69894;SDS011;57172;52.034;5.090;2023-05-10T03:00:25;73.07;;;22.17;;
69894;SDS011;57172;52.034;5.090;2023-05-10T03:02:52;80.63;;;21.87;;
69894;SDS011;57172;52.034;5.090;2023-05-10T03:05:20;68.43;;;19.98;;
69894;SDS011;57172;52.034;5.090;2023-05-10T03:07:47;75.72;;;20.67;;
69894;SDS011;57172;52.034;5.090;2023-05-10T03:10:14;76.68;;;20.88;;
69894;SDS011;57172;52.034;5.090;2023-05-10T03:18:34;73.05;;;20.27;;
69894;SDS011;57172;52.034;5.090;2023-05-10T03:21:10;80.78;;;20.98;;
69894;SDS011;57172;52.034;5.090;2023-05-10T03:26:43;80.18;;;20.52;;
69894;SDS011;57172;52.034;5.090;2023-05-10T03:29:15;79.67;;;20.60;;
69894;SDS011;57172;52.034;5.090;2023-05-10T03:31:43;97.30;;;21.85;;
69894;SDS011;57172;52.034;5.090;2023-05-10T03:34:10;93.88;;;21.63;;
69894;SDS011;57172;52.034;5.090;2023-05-10T03:36:37;103.00;;;22.20;;
69894;SDS011;57172;52.034;5.090;2023-05-10T03:39:04;105.57;;;22.92;;
69894;SDS011;57172;52.034;5.090;2023-05-10T03:41:32;105.30;;;22.47;;
69894;SDS011;57172;52.034;5.090;2023-05-10T03:43:59;100.55;;;23.13;;
69894;SDS011;57172;52.034;5.090;2023-05-10T03:46:27;117.43;;;24.17;;
69894;SDS011;57172;52.034;5.090;2023-05-10T03:48:54;114.75;;;24.63;;
69894;SDS011;57172;52.034;5.090;2023-05-10T03:51:21;105.18;;;23.88;;
69894;SDS011;57172;52.034;5.090;2023-05-10T03:53:48;101.57;;;24.23;;
69894;SDS011;57172;52.034;5.090;2023-05-10T03:56:15;104.88;;;24.83;;
69894;SDS011;57172;52.034;5.090;2023-05-10T03:58:44;106.85;;;25.73;;
69894;SDS011;57172;52.034;5.090;2023-05-10T04:01:11;92.47;;;24.02;;
69894;SDS011;57172;52.034;5.090;2023-05-10T04:03:38;102.65;;;24.90;;
69894;SDS011;57172;52.034;5.090;2023-05-10T04:06:06;97.27;;;25.70;;
69894;SDS011;57172;52.034;5.090;2023-05-10T04:08:35;105.78;;;25.85;;
69894;SDS011;57172;52.034;5.090;2023-05-10T04:11:11;101.95;;;26.10;;
69894;SDS011;57172;52.034;5.090;2023-05-10T04:13:39;96.53;;;26.05;;
69894;SDS011;57172;52.034;5.090;2023-05-10T04:16:06;102.95;;;26.25;;
69894;SDS011;57172;52.034;5.090;2023-05-10T04:18:32;94.40;;;25.53;;
69894;SDS011;57172;52.034;5.090;2023-05-10T04:20:59;106.45;;;27.05;;
69894;SDS011;57172;52.034;5.090;2023-05-10T04:23:26;103.30;;;26.95;;
69894;SDS011;57172;52.034;5.090;2023-05-10T04:25:59;100.45;;;27.50;;
69894;SDS011;57172;52.034;5.090;2023-05-10T04:28:26;96.95;;;25.95;;
69894;SDS011;57172;52.034;5.090;2023-05-10T04:31:00;92.60;;;25.20;;
69894;SDS011;57172;52.034;5.090;2023-05-10T04:33:30;91.20;;;27.63;;
69894;SDS011;57172;52.034;5.090;2023-05-10T04:35:59;95.90;;;28.10;;
69894;SDS011;57172;52.034;5.090;2023-05-10T04:38:28;100.85;;;28.35;;
69894;SDS011;57172;52.034;5.090;2023-05-10T04:41:03;90.47;;;26.58;;
69894;SDS011;57172;52.034;5.090;2023-05-10T04:43:34;91.00;;;27.27;;
69894;SDS011;57172;52.034;5.090;2023-05-10T04:46:01;98.28;;;27.30;;
69894;SDS011;57172;52.034;5.090;2023-05-10T04:48:29;100.18;;;28.27;;
69894;SDS011;57172;52.034;5.090;2023-05-10T04:50:55;102.30;;;29.05;;
69894;SDS011;57172;52.034;5.090;2023-05-10T04:53:22;90.60;;;28.30;;
69894;SDS011;57172;52.034;5.090;2023-05-10T04:55:49;91.07;;;27.57;;
69894;SDS011;57172;52.034;5.090;2023-05-10T04:58:16;89.90;;;27.45;;
69894;SDS011;57172;52.034;5.090;2023-05-10T05:00:43;92.18;;;29.20;;
69894;SDS011;57172;52.034;5.090;2023-05-10T05:03:10;90.10;;;28.58;;
69894;SDS011;57172;52.034;5.090;2023-05-10T05:05:37;83.25;;;29.27;;
69894;SDS011;57172;52.034;5.090;2023-05-10T05:08:05;91.67;;;29.47;;
69894;SDS011;57172;52.034;5.090;2023-05-10T05:10:32;85.20;;;28.75;;
69894;SDS011;57172;52.034;5.090;2023-05-10T05:12:59;86.10;;;28.92;;
69894;SDS011;57172;52.034;5.090;2023-05-10T05:15:26;81.30;;;27.60;;
69894;SDS011;57172;52.034;5.090;2023-05-10T05:17:53;75.85;;;26.88;;
69894;SDS011;57172;52.034;5.090;2023-05-10T05:20:20;80.83;;;28.90;;
69894;SDS011;57172;52.034;5.090;2023-05-10T05:22:47;74.72;;;27.80;;
69894;SDS011;57172;52.034;5.090;2023-05-10T05:25:14;73.15;;;27.10;;
69894;SDS011;57172;52.034;5.090;2023-05-10T05:27:42;68.53;;;26.52;;
69894;SDS011;57172;52.034;5.090;2023-05-10T05:30:09;76.20;;;28.70;;
69894;SDS011;57172;52.034;5.090;2023-05-10T05:32:36;80.07;;;28.77;;
69894;SDS011;57172;52.034;5.090;2023-05-10T05:35:03;79.53;;;29.20;;
69894;SDS011;57172;52.034;5.090;2023-05-10T05:37:30;76.85;;;28.92;;
69894;SDS011;57172;52.034;5.090;2023-05-10T05:39:57;83.93;;;28.88;;
69894;SDS011;57172;52.034;5.090;2023-05-10T05:42:24;79.07;;;28.52;;
69894;SDS011;57172;52.034;5.090;2023-05-10T05:44:52;70.50;;;26.10;;
69894;SDS011;57172;52.034;5.090;2023-05-10T05:47:19;69.55;;;25.50;;
69894;SDS011;57172;52.034;5.090;2023-05-10T05:49:46;70.13;;;26.25;;
69894;SDS011;57172;52.034;5.090;2023-05-10T05:52:13;61.97;;;24.38;;
69894;SDS011;57172;52.034;5.090;2023-05-10T05:54:40;67.15;;;24.17;;
69894;SDS011;57172;52.034;5.090;2023-05-10T05:57:07;73.87;;;25.33;;
69894;SDS011;57172;52.034;5.090;2023-05-10T05:59:34;76.35;;;25.83;;
69894;SDS011;57172;52.034;5.090;2023-05-10T06:02:01;70.18;;;23.30;;
69894;SDS011;57172;52.034;5.090;2023-05-10T06:04:28;55.03;;;19.80;;
69894;SDS011;57172;52.034;5.090;2023-05-10T06:06:55;57.35;;;21.02;;
69894;SDS011;57172;52.034;5.090;2023-05-10T06:09:22;57.63;;;20.33;;
69894;SDS011;57172;52.034;5.090;2023-05-10T06:11:50;53.10;;;19.23;;
69894;SDS011;57172;52.034;5.090;2023-05-10T06:14:19;55.60;;;19.98;;
69894;SDS011;57172;52.034;5.090;2023-05-10T06:16:47;50.25;;;18.77;;
69894;SDS011;57172;52.034;5.090;2023-05-10T06:19:18;46.05;;;18.50;;
69894;SDS011;57172;52.034;5.090;2023-05-10T06:21:56;46.80;;;17.57;;
69894;SDS011;57172;52.034;5.090;2023-05-10T06:24:23;34.28;;;13.95;;
69894;SDS011;57172;52.034;5.090;2023-05-10T06:26:50;32.60;;;13.43;;
69894;SDS011;57172;52.034;5.090;2023-05-10T06:29:17;30.48;;;12.88;;
69894;SDS011;57172;52.034;5.090;2023-05-10T06:31:44;29.38;;;12.68;;
69894;SDS011;57172;52.034;5.090;2023-05-10T06:34:11;30.30;;;12.93;;
69894;SDS011;57172;52.034;5.090;2023-05-10T06:36:38;27.15;;;12.02;;
69894;SDS011;57172;52.034;5.090;2023-05-10T06:39:08;27.00;;;11.38;;
69894;SDS011;57172;52.034;5.090;2023-05-10T06:41:35;24.80;;;10.70;;
69894;SDS011;57172;52.034;5.090;2023-05-10T06:44:03;24.33;;;10.48;;
69894;SDS011;57172;52.034;5.090;2023-05-10T06:46:31;25.53;;;10.60;;
69894;SDS011;57172;52.034;5.090;2023-05-10T06:48:58;19.27;;;9.23;;
69894;SDS011;57172;52.034;5.090;2023-05-10T06:51:25;18.42;;;8.60;;
69894;SDS011;57172;52.034;5.090;2023-05-10T06:53:52;17.25;;;8.27;;
69894;SDS011;57172;52.034;5.090;2023-05-10T06:56:19;15.20;;;7.47;;
69894;SDS011;57172;52.034;5.090;2023-05-10T06:58:47;17.43;;;7.90;;
69894;SDS011;57172;52.034;5.090;2023-05-10T07:01:14;15.10;;;7.32;;
69894;SDS011;57172;52.034;5.090;2023-05-10T07:03:42;15.07;;;7.70;;
69894;SDS011;57172;52.034;5.090;2023-05-10T07:06:08;16.48;;;8.23;;
69894;SDS011;57172;52.034;5.090;2023-05-10T07:08:54;18.08;;;8.85;;
69894;SDS011;57172;52.034;5.090;2023-05-10T07:11:21;19.30;;;9.07;;
69894;SDS011;57172;52.034;5.090;2023-05-10T07:13:48;19.67;;;8.40;;
69894;SDS011;57172;52.034;5.090;2023-05-10T07:16:15;19.42;;;8.82;;
69894;SDS011;57172;52.034;5.090;2023-05-10T07:18:42;19.17;;;8.35;;
69894;SDS011;57172;52.034;5.090;2023-05-10T07:21:09;19.15;;;9.20;;
69894;SDS011;57172;52.034;5.090;2023-05-10T07:23:36;21.47;;;9.27;;
69894;SDS011;57172;52.034;5.090;2023-05-10T07:26:04;19.05;;;8.73;;
69894;SDS011;57172;52.034;5.090;2023-05-10T07:28:31;21.73;;;8.95;;
69894;SDS011;57172;52.034;5.090;2023-05-10T07:30:58;18.98;;;8.23;;
69894;SDS011;57172;52.034;5.090;2023-05-10T07:33:25;18.63;;;8.70;;
69894;SDS011;57172;52.034;5.090;2023-05-10T07:35:52;18.90;;;8.73;;
69894;SDS011;57172;52.034;5.090;2023-05-10T07:38:19;19.33;;;8.35;;
69894;SDS011;57172;52.034;5.090;2023-05-10T07:40:46;17.95;;;8.02;;
69894;SDS011;57172;52.034;5.090;2023-05-10T07:43:13;16.67;;;8.45;;
69894;SDS011;57172;52.034;5.090;2023-05-10T07:45:39;15.43;;;7.90;;
69894;SDS011;57172;52.034;5.090;2023-05-10T07:48:06;14.50;;;7.30;;
69894;SDS011;57172;52.034;5.090;2023-05-10T07:50:33;15.88;;;7.50;;
69894;SDS011;57172;52.034;5.090;2023-05-10T07:53:00;16.05;;;7.93;;
69894;SDS011;57172;52.034;5.090;2023-05-10T07:55:27;15.25;;;7.80;;
69894;SDS011;57172;52.034;5.090;2023-05-10T07:57:54;15.48;;;7.55;;
69894;SDS011;57172;52.034;5.090;2023-05-10T08:00:21;14.80;;;7.10;;
69894;SDS011;57172;52.034;5.090;2023-05-10T08:02:48;14.90;;;7.60;;
69894;SDS011;57172;52.034;5.090;2023-05-10T08:05:15;17.00;;;7.60;;
69894;SDS011;57172;52.034;5.090;2023-05-10T08:07:43;15.13;;;7.25;;
69894;SDS011;57172;52.034;5.090;2023-05-10T08:10:10;15.57;;;7.55;;
69894;SDS011;57172;52.034;5.090;2023-05-10T08:12:39;13.33;;;7.00;;
69894;SDS011;57172;52.034;5.090;2023-05-10T08:15:06;13.18;;;7.07;;
69894;SDS011;57172;52.034;5.090;2023-05-10T08:17:34;12.15;;;6.40;;
69894;SDS011;57172;52.034;5.090;2023-05-10T08:20:01;13.43;;;6.43;;
69894;SDS011;57172;52.034;5.090;2023-05-10T08:22:28;13.30;;;6.18;;
69894;SDS011;57172;52.034;5.090;2023-05-10T08:24:55;13.43;;;6.60;;
69894;SDS011;57172;52.034;5.090;2023-05-10T08:27:22;12.23;;;5.85;;
69894;SDS011;57172;52.034;5.090;2023-05-10T08:29:49;12.65;;;6.20;;
69894;SDS011;57172;52.034;5.090;2023-05-10T08:32:16;12.52;;;5.90;;
69894;SDS011;57172;52.034;5.090;2023-05-10T08:34:43;11.55;;;5.63;;
69894;SDS011;57172;52.034;5.090;2023-05-10T08:37:10;11.30;;;5.60;;
69894;SDS011;57172;52.034;5.090;2023-05-10T08:39:39;10.73;;;5.47;;
69894;SDS011;57172;52.034;5.090;2023-05-10T08:42:06;10.13;;;5.43;;
69894;SDS011;57172;52.034;5.090;2023-05-10T08:44:35;13.20;;;5.93;;
69894;SDS011;57172;52.034;5.090;2023-05-10T08:47:04;12.77;;;5.60;;
69894;SDS011;57172;52.034;5.090;2023-05-10T08:49:33;10.17;;;5.23;;
69894;SDS011;57172;52.034;5.090;2023-05-10T08:52:04;9.75;;;5.15;;
69894;SDS011;57172;52.034;5.090;2023-05-10T08:54:33;9.32;;;5.18;;
69894;SDS011;57172;52.034;5.090;2023-05-10T08:57:00;8.32;;;4.80;;
69894;SDS011;57172;52.034;5.090;2023-05-10T08:59:28;10.07;;;4.95;;
69894;SDS011;57172;52.034;5.090;2023-05-10T09:01:58;11.90;;;5.10;;
69894;SDS011;57172;52.034;5.090;2023-05-10T09:04:25;8.75;;;5.10;;
69894;SDS011;57172;52.034;5.090;2023-05-10T09:06:56;8.32;;;4.95;;
69894;SDS011;57172;52.034;5.090;2023-05-10T09:09:24;8.68;;;5.10;;
69894;SDS011;57172;52.034;5.090;2023-05-10T09:11:52;9.63;;;5.05;;
69894;SDS011;57172;52.034;5.090;2023-05-10T09:14:20;9.67;;;5.27;;
69894;SDS011;57172;52.034;5.090;2023-05-10T09:16:47;8.13;;;4.65;;
69894;SDS011;57172;52.034;5.090;2023-05-10T09:19:14;9.43;;;4.78;;
69894;SDS011;57172;52.034;5.090;2023-05-10T09:21:41;8.18;;;4.63;;
69894;SDS011;57172;52.034;5.090;2023-05-10T09:24:08;8.82;;;4.53;;
69894;SDS011;57172;52.034;5.090;2023-05-10T09:26:35;8.57;;;4.53;;
69894;SDS011;57172;52.034;5.090;2023-05-10T09:29:14;9.18;;;4.85;;
69894;SDS011;57172;52.034;5.090;2023-05-10T09:31:47;7.13;;;4.10;;
69894;SDS011;57172;52.034;5.090;2023-05-10T09:34:18;8.18;;;4.30;;
69894;SDS011;57172;52.034;5.090;2023-05-10T09:39:20;6.87;;;4.20;;
69894;SDS011;57172;52.034;5.090;2023-05-10T09:41:56;7.88;;;4.63;;
69894;SDS011;57172;52.034;5.090;2023-05-10T09:44:25;8.50;;;4.60;;
69894;SDS011;57172;52.034;5.090;2023-05-10T09:46:52;8.27;;;4.63;;
69894;SDS011;57172;52.034;5.090;2023-05-10T09:49:20;8.48;;;5.00;;
69894;SDS011;57172;52.034;5.090;2023-05-10T09:51:57;9.50;;;4.93;;
69894;SDS011;57172;52.034;5.090;2023-05-10T09:54:27;10.35;;;5.30;;
69894;SDS011;57172;52.034;5.090;2023-05-10T09:56:54;7.63;;;4.90;;
69894;SDS011;57172;52.034;5.090;2023-05-10T09:59:21;9.80;;;5.22;;
69894;SDS011;57172;52.034;5.090;2023-05-10T10:01:51;10.40;;;4.82;;
69894;SDS011;57172;52.034;5.090;2023-05-10T10:04:18;7.70;;;4.83;;
69894;SDS011;57172;52.034;5.090;2023-05-10T10:06:47;8.63;;;4.80;;
69894;SDS011;57172;52.034;5.090;2023-05-10T10:09:29;9.63;;;5.05;;
69894;SDS011;57172;52.034;5.090;2023-05-10T10:11:56;8.63;;;4.90;;
69894;SDS011;57172;52.034;5.090;2023-05-10T10:14:23;8.23;;;4.50;;
69894;SDS011;57172;52.034;5.090;2023-05-10T10:16:50;7.90;;;4.50;;
69894;SDS011;57172;52.034;5.090;2023-05-10T10:19:35;9.18;;;4.70;;
69894;SDS011;57172;52.034;5.090;2023-05-10T10:22:03;8.68;;;4.70;;
69894;SDS011;57172;52.034;5.090;2023-05-10T10:24:30;8.55;;;4.85;;
69894;SDS011;57172;52.034;5.090;2023-05-10T10:35:54;8.65;;;4.72;;
69894;SDS011;57172;52.034;5.090;2023-05-10T10:38:22;8.80;;;4.80;;
69894;SDS011;57172;52.034;5.090;2023-05-10T10:40:49;7.97;;;4.80;;
69894;SDS011;57172;52.034;5.090;2023-05-10T10:43:36;7.83;;;4.50;;
69894;SDS011;57172;52.034;5.090;2023-05-10T10:46:10;9.55;;;4.70;;
69894;SDS011;57172;52.034;5.090;2023-05-10T10:48:41;8.45;;;5.10;;
69894;SDS011;57172;52.034;5.090;2023-05-10T10:51:13;8.43;;;4.70;;
69894;SDS011;57172;52.034;5.090;2023-05-10T10:53:40;7.95;;;4.70;;
69894;SDS011;57172;52.034;5.090;2023-05-10T10:56:08;8.23;;;4.87;;
69894;SDS011;57172;52.034;5.090;2023-05-10T10:58:42;8.45;;;5.35;;
69894;SDS011;57172;52.034;5.090;2023-05-10T11:01:20;8.82;;;4.82;;
69894;SDS011;57172;52.034;5.090;2023-05-10T11:06:36;9.38;;;5.03;;
69894;SDS011;57172;52.034;5.090;2023-05-10T11:09:10;8.20;;;4.97;;
69894;SDS011;57172;52.034;5.090;2023-05-10T11:11:52;8.88;;;4.90;;
69894;SDS011;57172;52.034;5.090;2023-05-10T11:14:21;9.18;;;4.95;;
69894;SDS011;57172;52.034;5.090;2023-05-10T11:16:48;10.65;;;4.80;;
69894;SDS011;57172;52.034;5.090;2023-05-10T11:19:17;8.60;;;4.80;;
69894;SDS011;57172;52.034;5.090;2023-05-10T11:21:45;7.73;;;4.80;;
69894;SDS011;57172;52.034;5.090;2023-05-10T11:24:38;7.63;;;4.45;;
69894;SDS011;57172;52.034;5.090;2023-05-10T11:27:06;7.65;;;4.13;;
69894;SDS011;57172;52.034;5.090;2023-05-10T11:29:33;8.45;;;4.55;;
69894;SDS011;57172;52.034;5.090;2023-05-10T11:32:01;7.10;;;4.38;;
69894;SDS011;57172;52.034;5.090;2023-05-10T11:34:29;8.17;;;5.73;;
69894;SDS011;57172;52.034;5.090;2023-05-10T11:37:01;9.35;;;5.82;;
69894;SDS011;57172;52.034;5.090;2023-05-10T11:39:29;8.15;;;5.75;;
69894;SDS011;57172;52.034;5.090;2023-05-10T11:41:57;7.63;;;5.55;;
69894;SDS011;57172;52.034;5.090;2023-05-10T11:44:31;7.40;;;5.20;;
69894;SDS011;57172;52.034;5.090;2023-05-10T11:46:59;7.77;;;5.67;;
69894;SDS011;57172;52.034;5.090;2023-05-10T11:49:26;7.95;;;5.57;;
69894;SDS011;57172;52.034;5.090;2023-05-10T11:52:03;7.40;;;5.38;;
69894;SDS011;57172;52.034;5.090;2023-05-10T11:54:33;7.32;;;5.03;;
69894;SDS011;57172;52.034;5.090;2023-05-10T11:57:01;7.68;;;4.28;;
69894;SDS011;57172;52.034;5.090;2023-05-10T11:59:28;6.20;;;3.97;;
69894;SDS011;57172;52.034;5.090;2023-05-10T12:01:55;5.32;;;3.90;;
69894;SDS011;57172;52.034;5.090;2023-05-10T12:04:22;10.20;;;4.90;;
69894;SDS011;57172;52.034;5.090;2023-05-10T12:06:49;7.63;;;5.60;;
69894;SDS011;57172;52.034;5.090;2023-05-10T12:09:16;7.85;;;5.70;;
69894;SDS011;57172;52.034;5.090;2023-05-10T12:11:57;8.27;;;5.90;;
69894;SDS011;57172;52.034;5.090;2023-05-10T12:14:24;8.60;;;6.30;;
69894;SDS011;57172;52.034;5.090;2023-05-10T12:16:50;9.73;;;6.72;;
69894;SDS011;57172;52.034;5.090;2023-05-10T12:19:18;8.85;;;6.35;;
69894;SDS011;57172;52.034;5.090;2023-05-10T12:21:46;10.93;;;6.90;;
69894;SDS011;57172;52.034;5.090;2023-05-10T12:24:13;9.63;;;7.20;;
69894;SDS011;57172;52.034;5.090;2023-05-10T12:26:45;10.75;;;7.45;;
69894;SDS011;57172;52.034;5.090;2023-05-10T12:29:21;13.80;;;6.60;;
69894;SDS011;57172;52.034;5.090;2023-05-10T12:32:00;14.15;;;7.40;;
69894;SDS011;57172;52.034;5.090;2023-05-10T12:34:32;14.13;;;7.03;;
69894;SDS011;57172;52.034;5.090;2023-05-10T12:37:01;12.77;;;6.90;;
69894;SDS011;57172;52.034;5.090;2023-05-10T12:39:39;13.75;;;7.15;;
69894;SDS011;57172;52.034;5.090;2023-05-10T12:42:10;14.63;;;7.57;;
69894;SDS011;57172;52.034;5.090;2023-05-10T12:44:37;18.25;;;7.70;;
69894;SDS011;57172;52.034;5.090;2023-05-10T12:47:04;18.25;;;8.70;;
69894;SDS011;57172;52.034;5.090;2023-05-10T12:49:32;16.80;;;7.83;;
69894;SDS011;57172;52.034;5.090;2023-05-10T12:51:58;13.90;;;7.10;;
69894;SDS011;57172;52.034;5.090;2023-05-10T12:54:26;13.07;;;6.82;;
69894;SDS011;57172;52.034;5.090;2023-05-10T12:56:54;15.25;;;8.02;;
69894;SDS011;57172;52.034;5.090;2023-05-10T12:59:21;16.00;;;7.78;;
69894;SDS011;57172;52.034;5.090;2023-05-10T13:01:49;15.93;;;8.30;;
69894;SDS011;57172;52.034;5.090;2023-05-10T13:04:15;17.55;;;8.27;;
69894;SDS011;57172;52.034;5.090;2023-05-10T13:06:42;16.73;;;8.65;;
69894;SDS011;57172;52.034;5.090;2023-05-10T13:09:09;17.63;;;9.02;;
69894;SDS011;57172;52.034;5.090;2023-05-10T13:11:36;17.67;;;8.60;;
69894;SDS011;57172;52.034;5.090;2023-05-10T13:14:03;17.17;;;9.17;;
69894;SDS011;57172;52.034;5.090;2023-05-10T13:16:30;16.40;;;8.65;;
69894;SDS011;57172;52.034;5.090;2023-05-10T13:18:57;19.35;;;9.50;;
69894;SDS011;57172;52.034;5.090;2023-05-10T13:21:25;15.80;;;8.98;;
69894;SDS011;57172;52.034;5.090;2023-05-10T13:23:52;17.33;;;9.07;;
69894;SDS011;57172;52.034;5.090;2023-05-10T13:26:19;15.13;;;8.77;;
69894;SDS011;57172;52.034;5.090;2023-05-10T13:28:46;16.15;;;9.00;;
69894;SDS011;57172;52.034;5.090;2023-05-10T13:31:15;16.13;;;9.05;;
69894;SDS011;57172;52.034;5.090;2023-05-10T13:33:42;16.55;;;9.70;;
69894;SDS011;57172;52.034;5.090;2023-05-10T13:36:08;16.33;;;9.40;;
69894;SDS011;57172;52.034;5.090;2023-05-10T13:38:35;14.43;;;8.57;;
69894;SDS011;57172;52.034;5.090;2023-05-10T13:41:02;17.17;;;8.98;;
69894;SDS011;57172;52.034;5.090;2023-05-10T13:43:29;15.57;;;8.93;;
69894;SDS011;57172;52.034;5.090;2023-05-10T13:45:56;15.05;;;8.50;;
69894;SDS011;57172;52.034;5.090;2023-05-10T13:48:23;15.55;;;8.52;;
69894;SDS011;57172;52.034;5.090;2023-05-10T13:50:50;15.33;;;8.27;;
69894;SDS011;57172;52.034;5.090;2023-05-10T13:53:17;12.73;;;7.75;;
69894;SDS011;57172;52.034;5.090;2023-05-10T13:55:44;14.40;;;8.50;;
69894;SDS011;57172;52.034;5.090;2023-05-10T13:58:11;14.18;;;7.50;;
69894;SDS011;57172;52.034;5.090;2023-05-10T14:00:38;12.82;;;7.22;;
69894;SDS011;57172;52.034;5.090;2023-05-10T14:03:07;12.03;;;6.60;;
69894;SDS011;57172;52.034;5.090;2023-05-10T14:05:37;12.40;;;6.80;;
69894;SDS011;57172;52.034;5.090;2023-05-10T14:08:04;12.80;;;7.00;;
69894;SDS011;57172;52.034;5.090;2023-05-10T14:10:31;13.43;;;7.25;;
69894;SDS011;57172;52.034;5.090;2023-05-10T14:12:58;14.13;;;7.28;;
69894;SDS011;57172;52.034;5.090;2023-05-10T14:15:25;13.23;;;6.87;;
69894;SDS011;57172;52.034;5.090;2023-05-10T14:17:52;12.38;;;6.85;;
69894;SDS011;57172;52.034;5.090;2023-05-10T14:20:19;12.10;;;6.50;;
69894;SDS011;57172;52.034;5.090;2023-05-10T14:22:45;12.75;;;6.70;;
69894;SDS011;57172;52.034;5.090;2023-05-10T14:25:13;10.55;;;6.00;;
69894;SDS011;57172;52.034;5.090;2023-05-10T14:27:41;11.97;;;6.40;;
69894;SDS011;57172;52.034;5.090;2023-05-10T14:30:08;10.90;;;6.40;;
69894;SDS011;57172;52.034;5.090;2023-05-10T14:32:35;12.05;;;7.03;;
69894;SDS011;57172;52.034;5.090;2023-05-10T14:35:03;13.75;;;7.13;;
69894;SDS011;57172;52.034;5.090;2023-05-10T14:37:31;12.00;;;6.50;;
69894;SDS011;57172;52.034;5.090;2023-05-10T14:39:58;11.17;;;6.57;;
69894;SDS011;57172;52.034;5.090;2023-05-10T14:42:25;12.27;;;6.75;;
69894;SDS011;57172;52.034;5.090;2023-05-10T14:44:52;12.70;;;6.53;;
69894;SDS011;57172;52.034;5.090;2023-05-10T14:47:19;13.07;;;7.05;;
69894;SDS011;57172;52.034;5.090;2023-05-10T14:49:45;12.93;;;6.85;;
69894;SDS011;57172;52.034;5.090;2023-05-10T14:52:12;14.43;;;7.43;;
69894;SDS011;57172;52.034;5.090;2023-05-10T14:54:40;13.60;;;7.07;;
69894;SDS011;57172;52.034;5.090;2023-05-10T14:57:07;13.25;;;7.45;;
69894;SDS011;57172;52.034;5.090;2023-05-10T14:59:34;13.00;;;6.85;;
69894;SDS011;57172;52.034;5.090;2023-05-10T15:02:01;14.93;;;7.10;;
69894;SDS011;57172;52.034;5.090;2023-05-10T15:04:29;14.77;;;7.03;;
69894;SDS011;57172;52.034;5.090;2023-05-10T15:06:57;16.00;;;7.38;;
69894;SDS011;57172;52.034;5.090;2023-05-10T15:09:28;14.30;;;7.68;;
69894;SDS011;57172;52.034;5.090;2023-05-10T15:11:56;14.23;;;7.30;;
69894;SDS011;57172;52.034;5.090;2023-05-10T15:14:24;13.95;;;7.82;;
69894;SDS011;57172;52.034;5.090;2023-05-10T15:16:51;15.27;;;7.40;;